Newcastle, WY

5:23 PM MDT on March 22, 2017 (GMT -0600)
Mondell

Weather History for KECS - March, 2014

Change the Weather History Date:

Friday, March 21, 2014

  Actual Average (KCUT) Record (KCUT)
Temperature  
Mean Temperature 28 °F -  
Max Temperature 33 °F 46 °F 67 °F (2015)
Min Temperature 24 °F 19 °F -24 °F (1955)
Degree Days  
Heating Degree Days 36    
Moisture  
Dew Point 20 °F    
Average Humidity 65    
Maximum Humidity 86    
Minimum Humidity 52    
Precipitation  
Precipitation 0.00 in - - ()
Sea Level Pressure  
Sea Level Pressure 30.09 in    
Wind  
Wind Speed 14 mph (NW)    
Max Wind Speed 25 mph    
Max Gust Speed 32 mph    
Visibility 10 miles    
Events Snow    
Averages and records for this station are not official NWS values.
T = Trace of Precipitation, MM = Missing Value Source: NWS Daily Summary

Daily Weather History Graph

Daily Weather History Graph

Search for Another Location

Airport or City:

Trip Planner

Search our weather history database for the weather conditions in past years. The results will help you decide how hot, cold, wet, or windy it might be!

Date:

Astronomy

Mar. 21, 2014 Rise Set
Actual Time 6:58 AM MDT 7:10 PM MDT
Civil Twilight 6:29 AM MDT 7:39 PM MDT
Nautical Twilight 5:56 AM MDT 8:13 PM MDT
Astronomical Twilight 5:21 AM MDT 8:48 PM MDT
Moon No Moon Rise 9:43 AM MDT (3/21)
Length of Visible Light 13h 09m
Length of Day
12h 12m
Waning Gibbous, 75% of the Moon is Illuminated
Mar 21
Waning Gibbous
Mar 23
Last Quarter
Mar 30
New
Apr 7
First Quarter
Apr 15
Full

Hourly Weather History & Observations

Time (MDT) Temp. Windchill Dew Point Humidity Pressure Visibility Wind Dir Wind Speed Gust Speed Precip Events Conditions
12:15 AM 33.8 °F 24.3 °F 17.6 °F 52% 29.92 in 10.0 mi NW 13.8 mph 25.3 mph N/A   Scattered Clouds
12:35 AM 33.8 °F 24.8 °F 17.6 °F 52% 29.92 in 10.0 mi NW 12.7 mph - N/A   Scattered Clouds
12:55 AM 33.8 °F 23.2 °F 17.6 °F 52% 29.93 in 10.0 mi NW 17.3 mph 26.5 mph N/A   Scattered Clouds
1:15 AM 32.0 °F 23.6 °F 17.6 °F 55% 29.94 in 10.0 mi NW 10.4 mph - N/A   Scattered Clouds
1:35 AM 32.0 °F 23.0 °F 17.6 °F 55% 29.94 in 10.0 mi NNW 11.5 mph 17.3 mph N/A   Mostly Cloudy
1:55 AM 32.0 °F 22.5 °F 17.6 °F 55% 29.95 in 10.0 mi NNW 12.7 mph - N/A   Scattered Clouds
2:15 AM 32.0 °F 24.8 °F 17.6 °F 55% 29.95 in 10.0 mi NW 8.1 mph - N/A   Scattered Clouds
2:35 AM 30.2 °F 25.4 °F 17.6 °F 60% 29.95 in 10.0 mi NW 4.6 mph - N/A   Clear
2:55 AM 28.4 °F 24.6 °F 19.4 °F 69% 29.95 in 10.0 mi WNW 3.5 mph - N/A   Clear
3:15 AM 28.4 °F 24.6 °F 19.4 °F 69% 29.96 in 10.0 mi NW 3.5 mph - N/A   Clear
3:35 AM 28.4 °F 19.7 °F 19.4 °F 69% 29.97 in 10.0 mi NW 9.2 mph - N/A   Clear
3:55 AM 30.2 °F 20.8 °F 19.4 °F 64% 29.97 in 10.0 mi NNW 11.5 mph 19.6 mph N/A   Clear
4:15 AM 30.2 °F 20.8 °F 19.4 °F 64% 29.97 in 10.0 mi NNW 11.5 mph - N/A   Scattered Clouds
4:35 AM 30.2 °F 20.2 °F 19.4 °F 64% 29.97 in 10.0 mi NW 12.7 mph - N/A   Scattered Clouds
4:55 AM 28.4 °F 17.5 °F 19.4 °F 69% 29.98 in 10.0 mi NW 13.8 mph - N/A   Clear
5:15 AM 28.4 °F 17.0 °F 19.4 °F 69% 29.98 in 10.0 mi NW 15.0 mph 19.6 mph N/A   Scattered Clouds
5:35 AM 30.2 °F 20.2 °F 19.4 °F 64% 29.99 in 10.0 mi NW 12.7 mph - N/A   Mostly Cloudy
5:55 AM 30.2 °F 18.9 °F 21.2 °F 69% 30.00 in 10.0 mi NW 16.1 mph - N/A   Overcast
6:15 AM 30.2 °F 19.3 °F 21.2 °F 69% 30.00 in 10.0 mi NW 15.0 mph - N/A   Overcast
6:35 AM 30.2 °F 18.5 °F 21.2 °F 69% 30.02 in 10.0 mi NW 17.3 mph 25.3 mph N/A   Overcast
6:55 AM 30.2 °F 18.9 °F 23.0 °F 75% 30.02 in 10.0 mi NW 16.1 mph 25.3 mph N/A   Overcast
7:15 AM 30.2 °F 18.1 °F 23.0 °F 75% 30.03 in 10.0 mi NW 18.4 mph 26.5 mph N/A   Overcast
7:35 AM 30.2 °F 18.9 °F 23.0 °F 75% 30.04 in 10.0 mi NW 16.1 mph 20.7 mph N/A   Overcast
7:55 AM 30.2 °F 18.5 °F 23.0 °F 75% 30.04 in 10.0 mi NW 17.3 mph 26.5 mph N/A   Overcast
8:15 AM 30.2 °F 17.1 °F 23.0 °F 75% 30.06 in 10.0 mi NW 21.9 mph - N/A   Overcast
8:35 AM 30.2 °F 16.8 °F 23.0 °F 75% 30.06 in 10.0 mi NW 23.0 mph 27.6 mph N/A   Overcast
8:55 AM 32.0 °F 18.9 °F 23.0 °F 69% 30.07 in 10.0 mi NW 24.2 mph 31.1 mph N/A   Overcast
9:15 AM 32.0 °F 20.1 °F 24.8 °F 75% 30.08 in 4.0 mi NW 19.6 mph 27.6 mph N/A Snow Light Snow
9:35 AM 30.2 °F 18.1 °F 26.6 °F 86% 30.10 in 3.0 mi NW 18.4 mph 24.2 mph N/A Snow Light Snow
9:55 AM 32.0 °F 20.1 °F 26.6 °F 80% 30.11 in 5.0 mi NW 19.6 mph 26.5 mph N/A Snow Light Snow
10:15 AM 32.0 °F 20.1 °F 24.8 °F 75% 30.11 in 7.0 mi NNW 19.6 mph 27.6 mph N/A Snow Light Snow
10:35 AM 32.0 °F 19.2 °F 21.2 °F 64% 30.12 in 10.0 mi NNW 23.0 mph 31.1 mph N/A   Scattered Clouds
10:55 AM 32.0 °F 19.2 °F 19.4 °F 60% 30.12 in 10.0 mi NNW 23.0 mph 32.2 mph N/A   Scattered Clouds
11:15 AM 32.0 °F 18.6 °F 19.4 °F 60% 30.12 in 10.0 mi NNW 25.3 mph 31.1 mph N/A   Scattered Clouds
11:35 AM 32.0 °F 19.8 °F 21.2 °F 64% 30.12 in 10.0 mi NW 20.7 mph 28.8 mph N/A   Scattered Clouds
11:55 AM 32.0 °F 20.1 °F 19.4 °F 60% 30.13 in 10.0 mi NW 19.6 mph - N/A   Scattered Clouds
12:15 PM 33.8 °F 22.5 °F 19.4 °F 56% 30.13 in 10.0 mi NW 19.6 mph 23.0 mph N/A   Mostly Cloudy
12:35 PM 33.8 °F 22.8 °F 17.6 °F 52% 30.13 in 10.0 mi NW 18.4 mph 24.2 mph N/A   Mostly Cloudy
12:55 PM 33.8 °F 23.9 °F 17.6 °F 52% 30.14 in 10.0 mi NW 15.0 mph 23.0 mph N/A   Mostly Cloudy
1:15 PM 32.0 °F 20.5 °F 19.4 °F 60% 30.14 in 10.0 mi NW 18.4 mph - N/A   Mostly Cloudy
1:35 PM 32.0 °F 20.1 °F 19.4 °F 60% 30.14 in 10.0 mi NW 19.6 mph 24.2 mph N/A   Mostly Cloudy
1:55 PM 32.0 °F 20.5 °F 19.4 °F 60% 30.14 in 10.0 mi NNW 18.4 mph 24.2 mph N/A   Overcast
2:15 PM 32.0 °F 22.1 °F 19.4 °F 60% 30.14 in 10.0 mi NNW 13.8 mph 19.6 mph N/A   Mostly Cloudy
2:35 PM 32.0 °F 20.5 °F 19.4 °F 60% 30.14 in 10.0 mi NW 18.4 mph 23.0 mph N/A   Mostly Cloudy
2:55 PM 32.0 °F 20.8 °F 19.4 °F 60% 30.14 in 10.0 mi NW 17.3 mph 24.2 mph N/A   Mostly Cloudy
3:15 PM 32.0 °F 20.1 °F 17.6 °F 55% 30.14 in 10.0 mi NW 19.6 mph 24.2 mph N/A   Mostly Cloudy
3:35 PM 32.0 °F 22.1 °F 17.6 °F 55% 30.14 in 10.0 mi NNW 13.8 mph 24.2 mph N/A   Overcast
3:55 PM 32.0 °F 20.5 °F 19.4 °F 60% 30.14 in 10.0 mi NW 18.4 mph 21.9 mph N/A   Mostly Cloudy
4:15 PM 32.0 °F 21.2 °F 19.4 °F 60% 30.14 in 10.0 mi NNW 16.1 mph - N/A   Mostly Cloudy
4:35 PM 32.0 °F 21.2 °F 19.4 °F 60% 30.15 in 10.0 mi NW 16.1 mph - N/A   Overcast
4:55 PM 32.0 °F 22.5 °F 19.4 °F 60% 30.16 in 10.0 mi NW 12.7 mph - N/A   Overcast
5:15 PM 32.0 °F 24.2 °F 17.6 °F 55% 30.16 in 10.0 mi NNW 9.2 mph - N/A   Overcast
5:35 PM 32.0 °F 24.2 °F 17.6 °F 55% 30.16 in 10.0 mi NNW 9.2 mph - N/A   Overcast
5:55 PM 30.2 °F 21.3 °F 19.4 °F 64% 30.16 in 10.0 mi NNW 10.4 mph - N/A   Scattered Clouds
6:15 PM 30.2 °F 20.2 °F 17.6 °F 60% 30.17 in 10.0 mi NNW 12.7 mph - N/A   Clear
6:35 PM 30.2 °F 21.3 °F 17.6 °F 60% 30.18 in 10.0 mi NW 10.4 mph - N/A   Clear
6:55 PM 30.2 °F 21.3 °F 19.4 °F 64% 30.19 in 10.0 mi NW 10.4 mph - N/A   Clear
7:15 PM 28.4 °F 19.1 °F 19.4 °F 69% 30.19 in 10.0 mi NNW 10.4 mph - N/A   Clear
7:35 PM 28.4 °F 19.7 °F 19.4 °F 69% 30.19 in 10.0 mi NNW 9.2 mph - N/A   Clear
7:55 PM 28.4 °F 20.4 °F 19.4 °F 69% 30.19 in 10.0 mi NNW 8.1 mph - N/A   Clear
8:15 PM 28.4 °F 19.7 °F 19.4 °F 69% 30.20 in 10.0 mi NNW 9.2 mph - N/A   Clear
8:35 PM 28.4 °F 20.4 °F 19.4 °F 69% 30.20 in 10.0 mi NW 8.1 mph - N/A   Clear
8:55 PM 26.6 °F 19.1 °F 19.4 °F 74% 30.21 in 10.0 mi NNW 6.9 mph - N/A   Clear
9:15 PM 26.6 °F 21.2 °F 19.4 °F 74% 30.21 in 10.0 mi NNW 4.6 mph - N/A   Clear
9:35 PM 26.6 °F 19.1 °F 19.4 °F 74% 30.21 in 10.0 mi NNW 6.9 mph - N/A   Clear
9:55 PM 26.6 °F 19.1 °F 17.6 °F 69% 30.21 in 10.0 mi North 6.9 mph - N/A   Clear
10:15 PM 26.6 °F 20.0 °F 17.6 °F 69% 30.21 in 10.0 mi NNE 5.8 mph - N/A   Clear
10:35 PM 26.6 °F 20.0 °F 17.6 °F 69% 30.21 in 10.0 mi NE 5.8 mph - N/A   Clear
10:55 PM 26.6 °F 19.1 °F 17.6 °F 69% 30.22 in 10.0 mi ESE 6.9 mph - N/A   Clear
11:15 PM 26.6 °F 20.0 °F 19.4 °F 74% 30.22 in 10.0 mi ESE 5.8 mph - N/A   Scattered Clouds
11:35 PM 24.8 °F 19.1 °F 19.4 °F 80% 30.22 in 7.0 mi ESE 4.6 mph - N/A Snow Light Snow
11:55 PM 24.8 °F 19.1 °F 21.2 °F 86% 30.21 in 10.0 mi ESE 4.6 mph - N/A   Scattered Clouds